Time;durP1;ratioP1;P1;durP2;ratioP2;P2;SDS_P1;SDS_P2;PMS_P1;PMS_P2;Temp;Humidity;BMP_temperature;BMP_pressure;BME280_temperature;BME280_humidity;BME280_pressure;Samples;Min_cycle;Max_cycle;Signal;HPM_P1;HPM_P2
2022/12/14 00:00:15;;;;;;;0.68;0.68;;;14.70;62.50;;;;;;4202921;28;20089;-60
2022/12/14 00:02:55;;;;;;;0.20;0.20;;;14.70;62.30;;;;;;4192533;28;20059;-60
2022/12/14 00:05:37;;;;;;;0.00;0.00;;;14.70;62.00;;;;;;4194323;28;20183;-59
2022/12/14 00:08:18;;;;;;;0.00;0.00;;;14.70;61.80;;;;;;4194729;28;20121;-60
2022/12/14 00:11:00;;;;;;;0.13;0.13;;;14.70;61.80;;;;;;4207438;28;20063;-60
2022/12/14 00:13:42;;;;;;;1.60;1.50;;;14.70;61.90;;;;;;4209759;28;20116;-59
2022/12/14 00:16:24;;;;;;;0.45;0.45;;;14.60;62.10;;;;;;4209407;28;20577;-60
2022/12/14 00:19:05;;;;;;;3.47;2.00;;;14.60;62.20;;;;;;4192898;28;20388;-60
2022/12/14 00:21:46;;;;;;;0.20;0.20;;;14.70;62.10;;;;;;4183844;28;20051;-60
2022/12/14 00:24:27;;;;;;;0.88;0.88;;;14.70;61.90;;;;;;4194056;28;20137;-60
2022/12/14 00:27:09;;;;;;;0.00;0.00;;;14.70;61.90;;;;;;4199265;28;20055;-59
2022/12/14 00:29:50;;;;;;;5.05;0.82;;;14.70;61.80;;;;;;4204376;28;20059;-59
2022/12/14 00:32:33;;;;;;;0.50;0.38;;;14.70;61.90;;;;;;4193497;28;20070;-59
2022/12/14 00:35:17;;;;;;;0.22;0.22;;;14.60;61.90;;;;;;4194173;28;20047;-62
2022/12/14 00:37:58;;;;;;;0.13;0.13;;;14.60;62.10;;;;;;4206287;28;20058;-62
2022/12/14 00:40:39;;;;;;;0.65;0.65;;;14.70;63.00;;;;;;4194779;28;20094;-62
2022/12/14 00:43:21;;;;;;;0.03;0.03;;;14.70;61.70;;;;;;4193135;28;20067;-62
2022/12/14 00:46:03;;;;;;;0.70;0.70;;;14.90;61.30;;;;;;4193439;28;20294;-63
2022/12/14 00:48:44;;;;;;;0.40;0.40;;;15.00;60.90;;;;;;4176940;28;20566;-62
2022/12/14 00:51:25;;;;;;;1.08;1.00;;;15.00;60.50;;;;;;4181571;28;20051;-62
2022/12/14 00:54:05;;;;;;;0.03;0.03;;;15.10;60.00;;;;;;4193134;28;20055;-62
2022/12/14 00:56:46;;;;;;;0.77;0.75;;;15.10;59.70;;;;;;4195690;28;20059;-60
2022/12/14 00:59:29;;;;;;;0.25;0.25;;;15.10;59.70;;;;;;4204559;28;20047;-59
2022/12/14 01:02:09;;;;;;;0.20;0.20;;;15.10;59.70;;;;;;4192781;28;20047;-60
2022/12/14 01:04:50;;;;;;;1.25;1.25;;;15.20;59.70;;;;;;4191902;28;20059;-60
2022/12/14 01:07:31;;;;;;;0.25;0.25;;;15.10;59.60;;;;;;4202074;28;20051;-60
2022/12/14 01:10:12;;;;;;;6.93;2.10;;;15.00;59.60;;;;;;4197057;28;20051;-62
2022/12/14 01:12:53;;;;;;;0.20;0.20;;;15.00;59.60;;;;;;4207532;28;20051;-62
2022/12/14 01:15:36;;;;;;;0.57;0.38;;;14.90;60.60;;;;;;4209578;28;20050;-62
2022/12/14 01:18:17;;;;;;;0.30;0.30;;;14.90;59.90;;;;;;4176085;28;20052;-62
2022/12/14 01:21:08;;;;;;;0.00;0.00;;;14.80;60.10;;;;;;4176487;28;20527;-62
2022/12/14 01:23:53;;;;;;;0.65;0.65;;;14.90;60.00;;;;;;4174819;28;20106;-62
2022/12/14 01:26:38;;;;;;;0.85;0.85;;;14.90;59.80;;;;;;4182161;28;20055;-63
2022/12/14 01:29:19;;;;;;;0.05;0.05;;;14.90;59.60;;;;;;4201127;28;20051;-62
2022/12/14 01:32:01;;;;;;;0.30;0.30;;;15.00;59.60;;;;;;4192836;28;20059;-62
2022/12/14 01:34:43;;;;;;;2.25;1.63;;;15.00;59.60;;;;;;4191842;28;20070;-59
2022/12/14 01:37:24;;;;;;;2.00;1.40;;;15.00;59.60;;;;;;4204576;28;20054;-59
2022/12/14 01:40:06;;;;;;;0.10;0.10;;;15.00;59.60;;;;;;4194149;28;20048;-60
2022/12/14 01:42:47;;;;;;;0.00;0.00;;;15.00;59.60;;;;;;4191767;28;20074;-59
2022/12/14 01:45:29;;;;;;;0.77;0.77;;;15.00;59.40;;;;;;4192553;28;20052;-60
2022/12/14 01:48:13;;;;;;;0.00;0.00;;;15.10;59.20;;;;;;4193617;28;20055;-60
2022/12/14 01:50:54;;;;;;;0.15;0.15;;;15.20;59.00;;;;;;4197551;28;20440;-59
2022/12/14 01:53:35;;;;;;;0.63;0.63;;;15.30;58.90;;;;;;4208370;28;20058;-59
2022/12/14 01:56:17;;;;;;;0.30;0.25;;;15.30;58.80;;;;;;4203856;28;20050;-59
2022/12/14 01:59:02;;;;;;;0.55;0.55;;;15.30;58.60;;;;;;4174793;28;20060;-62
2022/12/14 02:01:44;;;;;;;0.50;0.50;;;15.40;58.40;;;;;;4175419;28;20052;-62
2022/12/14 02:04:27;;;;;;;0.28;0.28;;;15.40;58.20;;;;;;4175030;28;20115;-62
2022/12/14 02:07:09;;;;;;;0.63;0.63;;;15.40;58.10;;;;;;4197296;28;20059;-62
2022/12/14 02:09:52;;;;;;;0.00;0.00;;;15.50;58.00;;;;;;4198824;28;20446;-62
2022/12/14 02:12:42;;;;;;;1.88;0.77;;;15.50;57.80;;;;;;4206836;28;20510;-62
2022/12/14 02:15:24;;;;;;;0.63;0.63;;;15.60;57.60;;;;;;4208824;28;20050;-62
2022/12/14 02:18:07;;;;;;;4.28;0.55;;;15.70;57.50;;;;;;4196788;28;20059;-63
2022/12/14 02:21:08;;;;;;;0.57;0.57;;;15.60;57.50;;;;;;4191666;28;20047;-59
2022/12/14 02:24:38;;;;;;;0.43;0.43;;;15.50;57.60;;;;;;4191768;28;20071;-58
2022/12/14 02:27:38;;;;;;;2.47;1.50;;;15.50;57.70;;;;;;4199654;28;20105;-59
2022/12/14 02:30:22;;;;;;;0.93;0.93;;;15.50;57.80;;;;;;4192068;28;20040;-59
2022/12/14 02:33:33;;;;;;;0.40;0.40;;;15.50;57.90;;;;;;4192441;28;20048;-63
2022/12/14 02:36:24;;;;;;;0.40;0.40;;;15.50;58.10;;;;;;4197998;28;20124;-60
2022/12/14 02:39:11;;;;;;;0.22;0.22;;;15.40;58.20;;;;;;4175045;28;20067;-59
2022/12/14 02:42:00;;;;;;;0.00;0.00;;;15.20;58.40;;;;;;4175242;28;20137;-59
2022/12/14 02:44:51;;;;;;;0.10;0.10;;;15.10;58.70;;;;;;4192914;28;20055;-60
2022/12/14 02:47:39;;;;;;;0.17;0.17;;;15.10;59.00;;;;;;4201301;28;20055;-60
2022/12/14 02:50:24;;;;;;;0.65;0.65;;;15.00;59.20;;;;;;4192278;28;20548;-59
2022/12/14 02:53:14;;;;;;;0.65;0.60;;;14.80;59.30;;;;;;4188767;28;20496;-62
2022/12/14 02:55:58;;;;;;;0.38;0.38;;;14.80;59.50;;;;;;4175638;28;20052;-62
2022/12/14 02:58:42;;;;;;;1.38;1.27;;;14.90;59.40;;;;;;4159023;28;20522;-62
2022/12/14 03:01:26;;;;;;;0.32;0.32;;;15.00;59.10;;;;;;4158738;28;20056;-62
2022/12/14 03:04:09;;;;;;;0.20;0.20;;;15.00;58.90;;;;;;4181776;28;20056;-62
2022/12/14 03:06:56;;;;;;;0.10;0.10;;;15.20;58.70;;;;;;4188423;28;20064;-62
2022/12/14 03:09:37;;;;;;;0.68;0.68;;;15.30;59.20;;;;;;4175639;28;20052;-62
2022/12/14 03:12:21;;;;;;;0.00;0.00;;;15.40;58.20;;;;;;4192067;28;20055;-62
2022/12/14 03:15:04;;;;;;;1.75;1.17;;;15.50;57.90;;;;;;4175855;28;20511;-62
2022/12/14 03:17:48;;;;;;;1.27;1.08;;;15.50;57.60;;;;;;4175637;28;20590;-62
2022/12/14 03:20:34;;;;;;;0.00;0.00;;;15.50;57.60;;;;;;4175290;28;20187;-62
2022/12/14 03:23:20;;;;;;;4.47;2.63;;;15.50;57.70;;;;;;4183196;28;20229;-60
2022/12/14 03:26:06;;;;;;;0.52;0.52;;;15.50;57.80;;;;;;4177941;28;20052;-60
2022/12/14 03:28:51;;;;;;;0.08;0.08;;;15.50;57.60;;;;;;4177634;28;20051;-60
2022/12/14 03:31:37;;;;;;;1.55;0.82;;;15.50;57.40;;;;;;4177699;28;20124;-60
2022/12/14 03:34:23;;;;;;;3.25;0.38;;;15.50;57.40;;;;;;4194740;28;20101;-59
2022/12/14 03:37:11;;;;;;;0.93;0.32;;;15.50;57.20;;;;;;4207695;28;20128;-59
2022/12/14 03:39:52;;;;;;;0.75;0.57;;;15.50;57.20;;;;;;4211198;28;20047;-59
2022/12/14 03:42:37;;;;;;;0.32;0.32;;;15.40;57.30;;;;;;4211526;28;20055;-59
2022/12/14 03:45:24;;;;;;;0.70;0.70;;;15.40;57.40;;;;;;4192577;28;20091;-60
2022/12/14 03:48:14;;;;;;;0.20;0.20;;;15.50;57.30;;;;;;4194778;28;20048;-60
2022/12/14 03:51:04;;;;;;;0.98;0.75;;;15.40;57.20;;;;;;4193728;28;20155;-59
2022/12/14 03:53:51;;;;;;;1.10;1.10;;;15.50;57.10;;;;;;4208553;28;20093;-59
2022/12/14 03:56:39;;;;;;;0.00;0.00;;;15.50;57.10;;;;;;4211340;28;20055;-60
2022/12/14 03:59:27;;;;;;;0.13;0.13;;;15.40;57.00;;;;;;4211044;28;20495;-59
2022/12/14 04:02:12;;;;;;;0.38;0.30;;;15.30;57.20;;;;;;4204734;28;20101;-59
2022/12/14 04:04:58;;;;;;;0.73;0.73;;;15.30;57.50;;;;;;4193277;28;20055;-60
2022/12/14 04:07:47;;;;;;;0.85;0.85;;;15.20;57.50;;;;;;4194481;28;20055;-60
2022/12/14 04:19:48;;;;;;;0.55;0.55;;;15.30;57.50;;;;;;4211157;28;20047;-62
2022/12/14 04:22:34;;;;;;;0.10;0.10;;;15.30;57.30;;;;;;4186205;28;20052;-59
2022/12/14 04:31:25;;;;;;;0.32;0.32;;;15.50;57.60;;;;;;4184478;28;20510;-60
2022/12/14 04:34:08;;;;;;;1.40;1.17;;;15.50;56.80;;;;;;4184065;28;20051;-62
2022/12/14 04:36:54;;;;;;;0.00;0.00;;;15.50;56.80;;;;;;4176819;28;20126;-62
2022/12/14 04:39:39;;;;;;;2.10;1.45;;;15.60;56.80;;;;;;4177045;28;20071;-62
2022/12/14 04:42:24;;;;;;;1.20;1.20;;;15.60;56.60;;;;;;4160056;28;20068;-61
2022/12/14 04:45:11;;;;;;;3.10;0.88;;;15.70;56.40;;;;;;4189982;28;20427;-62
2022/12/14 04:47:59;;;;;;;0.95;0.95;;;15.70;56.20;;;;;;4193263;28;20097;-62
2022/12/14 04:50:46;;;;;;;5.75;1.65;;;15.70;56.10;;;;;;4188249;28;20080;-62
2022/12/14 04:53:29;;;;;;;0.00;0.00;;;15.60;56.10;;;;;;4188550;28;20048;-62
2022/12/14 04:56:19;;;;;;;2.08;0.88;;;15.60;56.30;;;;;;4193249;28;20048;-62
2022/12/14 04:59:00;;;;;;;0.50;0.50;;;15.60;56.40;;;;;;4193583;28;20055;-62
2022/12/14 05:01:50;;;;;;;0.52;0.52;;;15.50;56.30;;;;;;4197156;28;20097;-62
2022/12/14 05:04:53;;;;;;;0.55;0.55;;;15.50;57.20;;;;;;4192909;28;20063;-62
2022/12/14 05:07:46;;;;;;;0.30;0.30;;;15.50;56.60;;;;;;4193360;28;20396;-62
2022/12/14 05:10:35;;;;;;;0.00;0.00;;;15.40;56.50;;;;;;4205993;28;20055;-61
2022/12/14 05:13:22;;;;;;;0.08;0.08;;;15.30;56.60;;;;;;4207095;28;20051;-62
2022/12/14 05:16:04;;;;;;;0.00;0.00;;;15.20;56.70;;;;;;4209758;28;20114;-62
2022/12/14 05:18:47;;;;;;;0.75;0.75;;;15.20;56.90;;;;;;4209337;28;20514;-62
2022/12/14 05:21:46;;;;;;;0.47;0.47;;;15.10;57.00;;;;;;4198154;28;20051;-62
2022/12/14 05:24:28;;;;;;;0.80;0.40;;;15.10;57.00;;;;;;4176208;28;20098;-59
2022/12/14 05:27:08;;;;;;;1.45;1.38;;;15.20;56.70;;;;;;4184112;28;20506;-60
2022/12/14 05:29:49;;;;;;;0.00;0.00;;;15.30;56.60;;;;;;4191761;28;20098;-64
2022/12/14 05:32:30;;;;;;;0.35;0.35;;;15.30;56.50;;;;;;4184068;28;20521;-63
2022/12/14 05:35:13;;;;;;;0.10;0.10;;;15.40;56.30;;;;;;4192535;28;20125;-64
2022/12/14 05:37:54;;;;;;;0.40;0.40;;;15.50;56.10;;;;;;4191204;28;20055;-62
2022/12/14 05:40:35;;;;;;;0.57;0.57;;;15.50;56.20;;;;;;4196205;28;20422;-63
2022/12/14 05:43:16;;;;;;;2.30;1.35;;;15.50;56.90;;;;;;4193362;28;20546;-64
2022/12/14 05:45:58;;;;;;;2.60;1.03;;;15.50;56.00;;;;;;4190684;28;20609;-62
2022/12/14 05:48:40;;;;;;;1.05;1.00;;;15.60;55.80;;;;;;4191241;28;20293;-63
2022/12/14 05:51:27;;;;;;;1.38;1.38;;;15.60;55.60;;;;;;4203263;28;20050;-62
2022/12/14 05:54:08;;;;;;;0.35;0.35;;;15.50;55.60;;;;;;4177209;28;20071;-62
2022/12/14 05:56:49;;;;;;;1.17;1.17;;;15.50;55.60;;;;;;4175882;28;20519;-62
2022/12/14 05:59:30;;;;;;;0.73;0.70;;;15.50;55.70;;;;;;4175960;28;20416;-62
2022/12/14 06:02:11;;;;;;;5.20;2.55;;;15.50;55.80;;;;;;4199859;28;20062;-63
2022/12/14 06:04:52;;;;;;;0.47;0.47;;;15.50;55.90;;;;;;4192595;28;20056;-62
2022/12/14 06:07:34;;;;;;;1.17;0.63;;;15.40;56.10;;;;;;4192845;28;20510;-62
2022/12/14 06:10:16;;;;;;;0.15;0.15;;;15.30;56.30;;;;;;4205658;28;20051;-62
2022/12/14 06:12:57;;;;;;;0.08;0.08;;;15.40;56.40;;;;;;4208506;28;20601;-62
2022/12/14 06:15:38;;;;;;;0.52;0.45;;;15.40;56.20;;;;;;4208991;28;20173;-62
2022/12/14 06:18:19;;;;;;;0.20;0.20;;;15.50;56.10;;;;;;4209027;28;20096;-62
2022/12/14 06:21:00;;;;;;;0.38;0.38;;;15.50;56.70;;;;;;4175953;28;20512;-62
2022/12/14 06:23:43;;;;;;;1.02;1.02;;;15.50;56.00;;;;;;4175352;28;20206;-62
2022/12/14 06:26:25;;;;;;;0.57;0.57;;;15.50;55.90;;;;;;4176022;28;20052;-62
2022/12/14 06:29:05;;;;;;;1.35;1.25;;;15.50;55.80;;;;;;4183743;28;20517;-62
2022/12/14 06:31:47;;;;;;;0.53;0.53;;;15.50;55.90;;;;;;4208387;28;20170;-62
2022/12/14 06:34:29;;;;;;;0.80;0.80;;;15.40;55.80;;;;;;4208733;28;20502;-62
2022/12/14 06:37:15;;;;;;;0.00;0.00;;;15.40;55.70;;;;;;4208661;28;20503;-62
2022/12/14 06:39:57;;;;;;;0.73;0.73;;;15.50;55.60;;;;;;4205290;28;20058;-62
2022/12/14 06:42:38;;;;;;;0.45;0.45;;;15.40;55.60;;;;;;4208473;28;20556;-62
2022/12/14 06:45:19;;;;;;;6.25;3.10;;;15.40;55.60;;;;;;4208877;28;20132;-59
2022/12/14 06:48:00;;;;;;;0.50;0.50;;;15.40;55.60;;;;;;4208850;28;20069;-59
2022/12/14 06:50:41;;;;;;;0.00;0.00;;;15.50;56.30;;;;;;4207658;28;20047;-59
2022/12/14 06:53:22;;;;;;;1.80;1.35;;;15.50;55.50;;;;;;4208761;28;20046;-60
2022/12/14 06:56:10;;;;;;;0.00;0.00;;;15.50;55.50;;;;;;4208545;28;20054;-61
2022/12/14 06:58:51;;;;;;;0.10;0.10;;;15.50;55.50;;;;;;4205781;28;20499;-63
2022/12/14 07:01:32;;;;;;;0.00;0.00;;;15.50;56.20;;;;;;4203039;28;20055;-63
2022/12/14 07:04:15;;;;;;;0.40;0.40;;;15.60;56.30;;;;;;4178533;28;20064;-63
2022/12/14 07:06:56;;;;;;;0.45;0.45;;;15.60;55.90;;;;;;4184571;28;20395;-63
2022/12/14 07:09:38;;;;;;;0.03;0.03;;;15.60;55.80;;;;;;4193182;28;20051;-63
2022/12/14 07:12:21;;;;;;;0.30;0.30;;;15.60;55.80;;;;;;4197918;28;20066;-64
2022/12/14 07:15:02;;;;;;;0.17;0.17;;;15.60;55.70;;;;;;4209315;28;20146;-62
2022/12/14 07:17:43;;;;;;;0.73;0.73;;;15.50;55.80;;;;;;4212075;28;20047;-62
2022/12/14 07:20:24;;;;;;;3.30;1.88;;;15.50;55.90;;;;;;4208952;28;20073;-62
2022/12/14 07:23:05;;;;;;;1.10;1.10;;;15.40;56.00;;;;;;4204038;28;20051;-62
2022/12/14 07:25:46;;;;;;;0.00;0.00;;;15.30;56.20;;;;;;4192228;28;20487;-62
2022/12/14 07:28:29;;;;;;;17.70;3.35;;;15.30;56.50;;;;;;4193511;28;20155;-57
2022/12/14 07:31:13;;;;;;;8.57;1.08;;;15.20;56.80;;;;;;4191264;28;20055;-58
2022/12/14 07:33:56;;;;;;;0.30;0.30;;;15.10;57.00;;;;;;4191999;28;20071;-62
2022/12/14 07:36:37;;;;;;;0.88;0.88;;;15.00;57.20;;;;;;4192087;28;20094;-62
2022/12/14 07:39:18;;;;;;;0.20;0.20;;;14.90;57.50;;;;;;4192678;28;20071;-62
2022/12/14 07:41:59;;;;;;;0.40;0.40;;;14.90;57.70;;;;;;4191778;28;20138;-62
2022/12/14 07:44:43;;;;;;;0.32;0.32;;;15.00;57.60;;;;;;4191768;28;20050;-62
2022/12/14 07:47:24;;;;;;;1.42;1.35;;;15.00;57.50;;;;;;4192309;28;20403;-62
2022/12/14 07:50:06;;;;;;;0.93;0.93;;;15.00;57.40;;;;;;4191831;28;20113;-63
2022/12/14 07:52:47;;;;;;;0.32;0.32;;;15.10;57.30;;;;;;4191843;28;20059;-63
2022/12/14 07:55:29;;;;;;;0.00;0.00;;;15.20;57.10;;;;;;4192020;28;20411;-63
2022/12/14 07:58:09;;;;;;;1.75;1.67;;;15.30;56.80;;;;;;4190508;28;20047;-62
2022/12/14 08:00:51;;;;;;;2.00;0.57;;;15.40;56.60;;;;;;4192297;28;20063;-62
2022/12/14 08:03:32;;;;;;;0.10;0.10;;;15.40;56.30;;;;;;4191858;28;20445;-62
2022/12/14 08:06:15;;;;;;;0.55;0.55;;;15.40;56.30;;;;;;4191255;28;20101;-63
2022/12/14 08:08:56;;;;;;;0.00;0.00;;;15.50;56.20;;;;;;4189929;28;20105;-61
2022/12/14 08:11:38;;;;;;;0.80;0.80;;;15.50;56.10;;;;;;4191858;28;20090;-63
2022/12/14 08:14:19;;;;;;;;;;;15.60;56.00;;;;;;4192197;28;20134;-62
2022/12/14 08:17:01;;;;;;;0.10;0.10;;;15.60;56.00;;;;;;4191875;28;19927;-64
2022/12/14 08:19:42;;;;;;;1.08;0.73;;;15.60;55.90;;;;;;4192247;28;20056;-64
2022/12/14 08:22:23;;;;;;;0.35;0.35;;;15.60;55.90;;;;;;4190530;28;20124;-64
2022/12/14 08:25:04;;;;;;;1.63;1.30;;;15.50;55.90;;;;;;4191900;28;20126;-64
2022/12/14 08:27:45;;;;;;;3.00;0.68;;;15.50;56.00;;;;;;4191615;28;20556;-63
2022/12/14 08:30:26;;;;;;;4.60;1.65;;;15.50;56.10;;;;;;4191728;28;20415;-64
2022/12/14 08:33:08;;;;;;;1.45;1.45;;;15.40;56.30;;;;;;4191981;28;20055;-64
2022/12/14 08:35:50;;;;;;;0.55;0.55;;;15.30;56.50;;;;;;4191382;28;20486;-64
2022/12/14 08:38:31;;;;;;;0.00;0.00;;;15.30;56.50;;;;;;4191211;28;20494;-64
2022/12/14 08:41:13;;;;;;;1.08;1.02;;;15.30;56.50;;;;;;4191338;28;20351;-58
2022/12/14 08:44:05;;;;;;;8.45;2.05;;;15.20;56.60;;;;;;4189033;28;20082;-59
2022/12/14 08:46:47;;;;;;;0.70;0.70;;;15.10;56.70;;;;;;4173962;28;20400;-58
2022/12/14 08:49:29;;;;;;;0.00;0.00;;;15.10;57.60;;;;;;4173986;28;20121;-59
2022/12/14 08:52:12;;;;;;;1.65;1.52;;;15.00;57.10;;;;;;4174531;28;20411;-58
2022/12/14 08:54:53;;;;;;;0.20;0.20;;;14.90;57.30;;;;;;4174748;28;20187;-58
2022/12/14 08:57:34;;;;;;;0.10;0.10;;;14.90;57.50;;;;;;4174350;28;20964;-58
2022/12/14 09:00:16;;;;;;;0.10;0.10;;;15.00;57.40;;;;;;4187408;28;20051;-59
2022/12/14 09:02:57;;;;;;;1.17;1.17;;;15.00;57.20;;;;;;4191343;28;20059;-59
2022/12/14 09:05:40;;;;;;;0.43;0.43;;;15.10;57.10;;;;;;4190560;28;20084;-59
2022/12/14 09:08:21;;;;;;;0.08;0.08;;;15.10;57.00;;;;;;4189084;28;20608;-64
2022/12/14 09:11:05;;;;;;;0.00;0.00;;;15.20;56.90;;;;;;4189338;28;20059;-64
2022/12/14 09:13:46;;;;;;;1.08;1.08;;;15.20;56.70;;;;;;4190667;28;20052;-64
2022/12/14 09:16:27;;;;;;;0.30;0.30;;;15.30;56.60;;;;;;4191054;28;20121;-64
2022/12/14 09:19:08;;;;;;;1.35;1.25;;;15.30;56.40;;;;;;4189806;28;20141;-65
2022/12/14 09:21:50;;;;;;;1.87;1.17;;;15.40;56.40;;;;;;4189067;28;20064;-65
2022/12/14 09:24:31;;;;;;;3.30;3.08;;;15.40;56.40;;;;;;4190552;28;20453;-64
2022/12/14 09:27:12;;;;;;;0.15;0.15;;;15.30;57.20;;;;;;4190516;28;20063;-63
2022/12/14 09:29:53;;;;;;;0.15;0.15;;;15.30;56.60;;;;;;4190711;28;20058;-63
2022/12/14 09:32:34;;;;;;;2.00;1.90;;;15.30;56.60;;;;;;4190692;28;20059;-63
2022/12/14 09:35:15;;;;;;;1.33;1.25;;;15.40;56.70;;;;;;4189707;28;20052;-63
2022/12/14 09:37:58;;;;;;;0.13;0.13;;;15.30;56.70;;;;;;4189746;28;20055;-63
2022/12/14 09:40:46;;;;;;;0.32;0.32;;;15.30;56.80;;;;;;4190555;28;20059;-64
2022/12/14 09:43:39;;;;;;;1.20;1.20;;;15.40;56.70;;;;;;4190232;28;20071;-63
2022/12/14 09:46:44;;;;;;;0.28;0.28;;;15.40;56.50;;;;;;4187399;28;20051;-63
2022/12/14 09:49:28;;;;;;;0.00;0.00;;;15.40;56.60;;;;;;4188987;28;20067;-63
2022/12/14 09:52:15;;;;;;;0.20;0.20;;;15.40;56.60;;;;;;4189928;28;20066;-64
2022/12/14 09:54:58;;;;;;;0.00;0.00;;;15.40;56.50;;;;;;4189078;28;20063;-64
2022/12/14 09:57:42;;;;;;;1.10;0.90;;;15.50;56.40;;;;;;4189182;28;20089;-64
2022/12/14 10:00:23;;;;;;;0.03;0.03;;;15.50;56.40;;;;;;4190568;28;20059;-63
2022/12/14 10:03:24;;;;;;;0.30;0.30;;;15.50;56.40;;;;;;4172786;28;20048;-63
2022/12/14 10:06:26;;;;;;;0.10;0.10;;;15.60;56.20;;;;;;4173122;28;20044;-63
2022/12/14 10:09:14;;;;;;;0.57;0.57;;;15.70;56.10;;;;;;4172723;28;20434;-64
2022/12/14 10:12:07;;;;;;;0.52;0.52;;;15.70;56.00;;;;;;4173289;28;20094;-62
2022/12/14 10:15:00;;;;;;;1.55;1.45;;;15.60;56.20;;;;;;4173230;28;20515;-63
2022/12/14 10:18:07;;;;;;;0.10;0.10;;;15.60;56.30;;;;;;4173454;28;20060;-63
2022/12/14 10:21:04;;;;;;;1.13;1.13;;;15.60;56.30;;;;;;4173200;28;20056;-64
2022/12/14 10:23:52;;;;;;;0.75;0.75;;;15.60;56.40;;;;;;4173130;28;20056;-64
2022/12/14 10:26:41;;;;;;;1.10;1.10;;;15.60;56.60;;;;;;4173496;28;20068;-64
2022/12/14 10:29:29;;;;;;;1.08;1.05;;;15.60;56.80;;;;;;4173376;28;20122;-63
2022/12/14 10:32:19;;;;;;;0.00;0.00;;;15.60;56.70;;;;;;4189180;28;20051;-66
2022/12/14 10:35:08;;;;;;;0.00;0.00;;;15.70;56.70;;;;;;4189504;28;20625;-64
2022/12/14 10:37:53;;;;;;;0.70;0.70;;;15.60;56.80;;;;;;4189207;28;20079;-64
2022/12/14 10:40:35;;;;;;;1.55;0.88;;;15.60;57.00;;;;;;4188154;28;20056;-59
2022/12/14 10:43:38;;;;;;;1.88;1.75;;;15.60;57.10;;;;;;4189363;28;20051;-59
2022/12/14 10:46:27;;;;;;;0.05;0.05;;;15.60;57.10;;;;;;4189516;28;20063;-59
2022/12/14 10:49:16;;;;;;;7.88;2.15;;;15.60;57.00;;;;;;4189824;28;20714;-59
2022/12/14 10:52:01;;;;;;;0.15;0.15;;;15.60;57.10;;;;;;4189140;28;20063;-59
2022/12/14 10:54:46;;;;;;;0.10;0.10;;;15.60;57.10;;;;;;4188921;28;20054;-59
2022/12/14 10:57:27;;;;;;;0.00;0.00;;;15.70;57.20;;;;;;4189487;28;20050;-59
2022/12/14 11:00:13;;;;;;;0.35;0.35;;;15.70;57.30;;;;;;4173378;28;20056;-59
2022/12/14 11:03:12;;;;;;;0.00;0.00;;;15.60;57.50;;;;;;4172456;28;20056;-59
2022/12/14 11:05:59;;;;;;;2.17;0.80;;;15.50;57.80;;;;;;4173052;28;20052;-59
2022/12/14 11:08:44;;;;;;;1.65;1.55;;;15.30;58.00;;;;;;4172336;28;20060;-59
2022/12/14 11:11:28;;;;;;;0.57;0.57;;;15.20;58.40;;;;;;4173011;28;20495;-59
2022/12/14 11:14:14;;;;;;;0.00;0.00;;;15.00;58.80;;;;;;4189289;28;20105;-59
2022/12/14 11:16:55;;;;;;;3.10;2.00;;;14.90;59.20;;;;;;4189565;28;20058;-59
2022/12/14 11:19:37;;;;;;;3.90;1.75;;;14.90;59.70;;;;;;4190112;28;20522;-59
2022/12/14 11:22:19;;;;;;;1.08;1.05;;;14.90;59.70;;;;;;4187917;28;20048;-59
2022/12/14 11:25:02;;;;;;;0.85;0.85;;;14.90;59.70;;;;;;4187001;28;20059;-59
2022/12/14 11:27:43;;;;;;;0.90;0.90;;;14.90;59.80;;;;;;4189373;28;20093;-59
2022/12/14 11:30:24;;;;;;;1.30;1.30;;;14.90;59.90;;;;;;4172413;28;20068;-58
2022/12/14 11:33:05;;;;;;;2.25;1.17;;;14.80;60.10;;;;;;4172572;28;20051;-59
2022/12/14 11:35:51;;;;;;;0.30;0.30;;;14.70;60.30;;;;;;4172535;28;20052;-64
2022/12/14 11:38:32;;;;;;;1.58;1.48;;;14.60;60.60;;;;;;4172374;28;20063;-63
2022/12/14 11:41:21;;;;;;;0.80;0.80;;;14.60;61.10;;;;;;4172429;28;20060;-65
2022/12/14 11:44:04;;;;;;;0.00;0.00;;;14.50;61.10;;;;;;4173634;28;20385;-63
2022/12/14 11:46:49;;;;;;;0.50;0.50;;;14.50;61.20;;;;;;4175674;28;20788;-62
2022/12/14 11:49:35;;;;;;;0.05;0.05;;;14.50;61.30;;;;;;4175325;28;20874;-62
2022/12/14 11:52:19;;;;;;;1.13;1.13;;;14.50;61.40;;;;;;4175734;28;20044;-63
2022/12/14 11:55:10;;;;;;;1.17;1.17;;;14.50;61.50;;;;;;4175510;28;20142;-63
2022/12/14 11:57:55;;;;;;;3.03;0.73;;;14.50;61.50;;;;;;4175710;28;20146;-61
2022/12/14 12:00:45;;;;;;;1.85;1.75;;;14.40;61.60;;;;;;4176077;28;20067;-63
2022/12/14 12:03:31;;;;;;;2.15;1.80;;;14.40;61.80;;;;;;4176313;28;20102;-63
2022/12/14 12:06:19;;;;;;;0.00;0.00;;;14.30;62.00;;;;;;4175482;28;20071;-63
2022/12/14 12:09:08;;;;;;;0.50;0.50;;;14.30;62.20;;;;;;4175538;28;20056;-63
2022/12/14 12:11:49;;;;;;;0.30;0.30;;;14.20;62.50;;;;;;4175968;28;20052;-64
2022/12/14 12:14:33;;;;;;;0.35;0.35;;;14.20;62.80;;;;;;4175493;28;20438;-63
2022/12/14 12:17:19;;;;;;;1.20;0.75;;;14.30;62.80;;;;;;4175191;28;20056;-63
2022/12/14 12:20:00;;;;;;;0.00;0.00;;;14.30;62.50;;;;;;4192601;28;20214;-64
2022/12/14 12:22:45;;;;;;;0.95;0.95;;;14.40;62.20;;;;;;4191527;28;20064;-64
2022/12/14 12:25:32;;;;;;;1.45;1.38;;;14.40;62.10;;;;;;4191206;28;20063;-64
2022/12/14 12:28:23;;;;;;;0.25;0.25;;;14.30;62.00;;;;;;4191418;28;20058;-63
2022/12/14 12:31:09;;;;;;;0.30;0.30;;;14.30;62.10;;;;;;4191881;28;20059;-64
2022/12/14 12:33:56;;;;;;;0.03;0.03;;;14.20;62.20;;;;;;4191570;28;20145;-62
2022/12/14 12:53:33;;;;;;;1999.90;506.80;;;14.10;75.90;;;;;;4175043;27;1269195;-60
2022/12/14 12:56:19;;;;;;;1767.03;440.15;;;14.00;76.70;;;;;;4220931;28;20142;-60
2022/12/14 12:59:01;;;;;;;1442.00;392.17;;;13.80;77.60;;;;;;4221052;28;20214;-60
2022/12/14 13:01:45;;;;;;;998.22;299.58;;;13.80;78.40;;;;;;4219598;28;20589;-61
2022/12/14 13:04:32;;;;;;;900.03;271.13;;;13.60;78.40;;;;;;4220768;28;20051;-61
2022/12/14 13:07:28;;;;;;;992.20;316.63;;;13.50;79.30;;;;;;4221032;28;20055;-60
2022/12/14 13:10:18;;;;;;;800.03;298.58;;;13.40;81.60;;;;;;4218016;28;20107;-59
2022/12/14 13:13:03;;;;;;;472.30;132.63;;;13.30;83.40;;;;;;4219782;28;20070;-57
2022/12/14 13:15:47;;;;;;;409.40;111.57;;;13.20;81.80;;;;;;4220933;28;20058;-57
2022/12/14 13:18:34;;;;;;;305.67;82.35;;;13.10;80.40;;;;;;4219003;28;20059;-58
2022/12/14 13:27:44;;;;;;;1898.43;350.65;;;14.70;89.30;;;;;;4171049;27;20351;-62
2022/12/14 13:30:39;;;;;;;769.03;199.27;;;14.40;85.50;;;;;;4156632;28;20088;-64
2022/12/14 13:33:55;;;;;;;302.77;89.05;;;14.10;82.50;;;;;;4162666;28;20187;-60
2022/12/14 13:37:11;;;;;;;120.85;38.75;;;13.80;82.10;;;;;;4170002;28;20048;-61
2022/12/14 13:40:15;;;;;;;61.72;24.63;;;13.60;81.80;;;;;;4154480;28;20492;-61
2022/12/14 13:43:07;;;;;;;40.72;20.85;;;13.40;81.20;;;;;;4157155;28;20194;-62
2022/12/14 13:45:49;;;;;;;;;;;13.30;81.40;;;;;;4157566;28;20068;-61
2022/12/14 13:48:37;;;;;;;28.67;18.08;;;13.20;81.10;;;;;;4154667;28;19932;-61
2022/12/14 13:51:27;;;;;;;31.65;20.17;;;13.10;80.40;;;;;;4155755;28;20099;-61
2022/12/14 13:54:20;;;;;;;28.17;18.63;;;13.00;81.20;;;;;;4163354;28;20405;-62
2022/12/14 13:57:04;;;;;;;28.35;17.52;;;13.00;81.70;;;;;;4158607;28;20048;-61
2022/12/14 13:59:50;;;;;;;25.52;17.70;;;12.90;81.50;;;;;;4157721;28;20064;-61
2022/12/14 14:02:40;;;;;;;28.83;18.65;;;12.90;81.90;;;;;;4154098;28;20210;-61
2022/12/14 14:05:43;;;;;;;23.63;17.15;;;12.90;82.10;;;;;;4163922;28;20051;-60
2022/12/14 14:08:31;;;;;;;24.50;17.33;;;12.80;82.40;;;;;;4157742;28;20052;-61
2022/12/14 14:11:45;;;;;;;23.58;17.38;;;12.80;82.00;;;;;;4160167;28;20048;-61
2022/12/14 14:14:39;;;;;;;27.90;17.75;;;12.80;82.30;;;;;;4154112;28;20060;-61
2022/12/14 14:17:25;;;;;;;28.45;17.13;;;12.80;81.90;;;;;;4169449;28;20048;-61
2022/12/14 14:20:35;;;;;;;24.13;17.17;;;12.70;81.70;;;;;;4161474;28;20499;-61
2022/12/14 14:23:35;;;;;;;27.27;16.70;;;12.70;82.10;;;;;;4168427;28;20119;-61
2022/12/14 14:26:26;;;;;;;24.05;16.02;;;12.70;81.90;;;;;;4152540;28;20057;-61
2022/12/14 14:29:24;;;;;;;23.00;15.40;;;12.70;81.50;;;;;;4153928;28;20388;-61
2022/12/14 14:32:24;;;;;;;28.42;17.17;;;12.60;81.50;;;;;;4153863;28;20180;-61
2022/12/14 14:35:22;;;;;;;21.92;15.75;;;12.60;81.10;;;;;;4156163;28;20401;-61
2022/12/14 14:38:09;;;;;;;23.60;16.08;;;12.60;81.10;;;;;;4146234;28;20072;-61
2022/12/14 14:40:56;;;;;;;26.48;15.68;;;12.60;81.00;;;;;;4143739;28;20547;-61
2022/12/14 14:44:00;;;;;;;22.48;15.40;;;12.50;80.90;;;;;;4143410;28;21110;-61
2022/12/14 14:46:45;;;;;;;23.63;15.15;;;12.50;80.60;;;;;;4144221;28;20057;-61
2022/12/14 14:49:30;;;;;;;22.95;15.57;;;12.50;81.30;;;;;;4143741;28;20181;-60
2022/12/14 14:52:59;;;;;;;21.45;13.98;;;12.40;80.20;;;;;;4146352;28;20227;-60
2022/12/14 14:56:02;;;;;;;22.50;13.98;;;12.40;79.90;;;;;;4092494;28;20058;-60